메인 페이지
METAR-TAF:

METAR-TAF

공항 :

시드니 킹스포드 스미스 국제공항

시드니, 오스트레일리아

위도: 33-57S, 경도: 151-11E, 고도: 6m

현재 날씨관측

예보는 37분 전, 04:30시(UTC)에 발표되었습니다.
20kt, 순간 최대 풍속 30kt
온도 18°C
습도 88%
기압 1019 hPa
시정 10km 이상
고도 800ft 상공 구름 조금
고도 1300ft 상공 구름 많음
고도 600ft 상공 구름 보통
고도 2500ft 상공 구름 많음
약한소나기

METAR: YSSY 150430Z 18019KT 9999 FEW008 BKN013 18/16 Q1019 FM0430 17020G30KT 9999 -SHRA SCT006 BKN025 TEMPO 0430/0530 4000 DZ BKN006 INTER 0530/0730 5000 SHRA BKN010

시각: 16:07 (05:07 UTC)

예보

예보는 1 시간 58분 전, 03:09시(UTC)에 발표되었습니다.
예보 대상 시간: 15일 03시부터 16일 06시까지 (UTC)
20kt, 순간 최대 풍속 30kt
시정 10km 이상
고도 1000ft 상공 구름 보통
고도 2000ft 상공 구름 많음
약한소나기
15일 0900시부터 (UTC)
12kt
시정 10km 이상
고도 1500ft 상공 구름 보통
고도 2500ft 상공 구름 많음
약한소나기
16일 0100시부터 (UTC)
남동12kt
시정 10km 이상
고도 3000ft 상공 구름 보통
고도 4500ft 상공 구름 보통
약한소나기
일시적
15일 03시부터 15일 06시까지 (UTC)
시정: 5000m
고도 600ft 상공 구름 많음
고도 1000ft 상공 구름 많음
이슬비, 소나기

TAF: YSSY 150309Z 1503/1606 17020G30KT 9999 -SHRA SCT010 BKN020 FM150900 19012KT 9999 -SHRA SCT015 BKN025 FM160100 14012KT 9999 -SHRA SCT030 SCT045 TEMPO 1503/1506 4000 DZ BKN006 INTER 1506/1512 5000 SHRA BKN010

4,000개 이상의 공항 관측 자료 및 예보 (METAR 및 TAF 보고).

지도상에서 검색 가능한 기상관측소가 노란 점과 빨간 점으로 표시되어 있습니다.

기상관측소 명을 보려면 표시 위로 마우스를 이동하세요.

날씨 관측과 예보를 보려면 클릭하세요.

지도 변경 : 확대하려면 엑스 표시가 있는 녹색 버튼, 축소하려면 빼기 표시가 있는 녹색 버튼, 다음 페이지의 지도를 보려면 녹색 화살표를 클릭하세요.


METAR-TAF: